Time;durP1;ratioP1;P1;durP2;ratioP2;P2;SDS_P1;SDS_P2;PMS_P1;PMS_P2;Temp;Humidity;BMP_temperature;BMP_pressure;BME280_temperature;BME280_humidity;BME280_pressure;Samples;Min_cycle;Max_cycle;Signal;HPM_P1;HPM_P2
2022/06/26 00:01:22;;;;;;;15.55;13.93;;;17.70;99.90;;;;;;5088584;28;20028;-81
2022/06/26 00:03:48;;;;;;;16.27;13.95;;;17.80;99.90;;;;;;5085682;28;20122;-79
2022/06/26 00:06:13;;;;;;;15.45;13.82;;;17.80;99.90;;;;;;5094581;28;20119;-80
2022/06/26 00:08:39;;;;;;;15.93;14.15;;;17.80;99.90;;;;;;5088583;28;20022;-79
2022/06/26 00:11:05;;;;;;;14.32;12.82;;;17.80;99.90;;;;;;5089417;28;20036;-79
2022/06/26 00:13:30;;;;;;;14.00;12.50;;;17.80;99.90;;;;;;5086980;28;20027;-80
2022/06/26 00:15:56;;;;;;;15.18;13.63;;;17.70;99.90;;;;;;5088413;28;20070;-79
2022/06/26 00:18:22;;;;;;;15.07;13.48;;;17.80;99.90;;;;;;5091033;28;20024;-79
2022/06/26 00:20:47;;;;;;;15.43;13.88;;;17.70;99.90;;;;;;5082076;28;20114;-79
2022/06/26 00:23:13;;;;;;;16.50;14.90;;;17.80;99.90;;;;;;5089400;28;20027;-78
2022/06/26 00:25:38;;;;;;;15.63;14.25;;;17.90;99.90;;;;;;5085079;28;20020;-80
2022/06/26 00:28:04;;;;;;;18.73;16.00;;;17.80;99.90;;;;;;5091041;28;20043;-80
2022/06/26 00:30:30;;;;;;;17.92;14.60;;;17.90;99.90;;;;;;5089867;28;20032;-81
2022/06/26 00:32:55;;;;;;;16.13;13.68;;;17.90;99.90;;;;;;5089991;28;20021;-80
2022/06/26 00:35:21;;;;;;;15.93;14.15;;;17.90;99.90;;;;;;5091535;28;20020;-79
2022/06/26 00:37:48;;;;;;;15.05;13.57;;;17.90;99.90;;;;;;5072015;28;20048;-80
2022/06/26 00:40:14;;;;;;;16.33;13.73;;;17.70;99.90;;;;;;5073502;28;20025;-79
2022/06/26 00:42:40;;;;;;;16.30;13.68;;;17.80;99.90;;;;;;5071875;28;20059;-80
2022/06/26 00:45:07;;;;;;;15.35;13.80;;;17.80;99.90;;;;;;5072136;28;20059;-82
2022/06/26 00:47:32;;;;;;;20.35;14.93;;;17.80;99.90;;;;;;5077473;28;20020;-81
2022/06/26 00:49:58;;;;;;;21.63;15.23;;;17.70;99.90;;;;;;5078756;28;20032;-80
2022/06/26 00:52:24;;;;;;;19.55;15.23;;;17.70;99.90;;;;;;5071671;28;20427;-80
2022/06/26 00:54:51;;;;;;;17.05;15.35;;;17.60;99.90;;;;;;5074877;28;20025;-80
2022/06/26 00:57:18;;;;;;;17.60;15.15;;;17.70;99.90;;;;;;5074293;28;21021;-82
2022/06/26 00:59:43;;;;;;;17.30;15.32;;;17.70;99.90;;;;;;5080152;28;20020;-81
2022/06/26 01:02:09;;;;;;;19.30;15.40;;;17.60;99.90;;;;;;5075628;28;20094;-79
2022/06/26 01:04:35;;;;;;;22.75;15.43;;;17.60;99.90;;;;;;5082025;28;20020;-80
2022/06/26 01:07:04;;;;;;;16.85;14.27;;;17.60;99.90;;;;;;5076904;28;20017;-81
2022/06/26 01:09:30;;;;;;;17.23;14.75;;;17.50;99.90;;;;;;5074819;28;20082;-81
2022/06/26 01:11:56;;;;;;;17.17;15.45;;;17.50;99.90;;;;;;5081770;28;20021;-80
2022/06/26 01:14:22;;;;;;;19.80;16.42;;;17.40;99.90;;;;;;5078708;28;20020;-80
2022/06/26 01:16:47;;;;;;;20.77;17.10;;;17.40;99.90;;;;;;5077255;28;20062;-80
2022/06/26 01:19:18;;;;;;;21.83;17.48;;;17.40;99.90;;;;;;5074421;28;20025;-80
2022/06/26 01:21:44;;;;;;;20.80;17.95;;;17.30;99.90;;;;;;5075021;28;20062;-81
2022/06/26 01:24:11;;;;;;;24.55;17.67;;;17.20;99.90;;;;;;5074213;28;20033;-81
2022/06/26 01:26:37;;;;;;;21.98;17.90;;;17.20;99.90;;;;;;5076357;28;20480;-81
2022/06/26 01:29:04;;;;;;;19.83;17.08;;;17.30;99.90;;;;;;5073320;28;20107;-81
2022/06/26 01:31:32;;;;;;;23.73;19.30;;;17.20;99.90;;;;;;5087651;28;20017;-81
2022/06/26 01:33:59;;;;;;;21.05;18.08;;;17.20;99.90;;;;;;5088835;28;20024;-81
2022/06/26 01:36:24;;;;;;;23.85;18.38;;;17.20;99.90;;;;;;5089060;28;20020;-82
2022/06/26 01:38:50;;;;;;;26.85;19.15;;;17.10;99.90;;;;;;5092984;28;20157;-80
2022/06/26 01:41:16;;;;;;;28.83;18.45;;;17.00;99.90;;;;;;5096500;28;20093;-81
2022/06/26 01:43:42;;;;;;;24.83;19.67;;;17.10;99.90;;;;;;5089995;28;20071;-80
2022/06/26 01:46:08;;;;;;;26.58;18.75;;;17.00;99.90;;;;;;5083095;28;20051;-81
2022/06/26 01:48:39;;;;;;;22.38;18.00;;;16.80;99.90;;;;;;5077301;28;20029;-81
2022/06/26 01:51:04;;;;;;;;;;;16.80;99.90;;;;;;5074705;28;20033;-81
2022/06/26 01:53:30;;;;;;;25.75;19.33;;;16.70;99.90;;;;;;5074539;28;19912;-82
2022/06/26 01:55:56;;;;;;;21.73;19.20;;;16.60;99.90;;;;;;5074206;28;20017;-82
2022/06/26 01:58:22;;;;;;;20.05;16.95;;;16.50;99.90;;;;;;5073739;28;20028;-80
2022/06/26 02:00:50;;;;;;;24.77;19.73;;;16.50;99.90;;;;;;5074768;28;20374;-83
2022/06/26 02:03:16;;;;;;;20.85;17.17;;;16.50;99.90;;;;;;5074527;28;20064;-81
2022/06/26 02:05:44;;;;;;;27.73;16.63;;;16.40;99.90;;;;;;5074311;28;20121;-81
2022/06/26 02:08:09;;;;;;;28.95;18.70;;;16.40;99.90;;;;;;5075180;28;20469;-81
2022/06/26 02:13:36;;;;;;;21.23;16.25;;;16.30;99.90;;;;;;5087945;28;20086;-81
2022/06/26 02:16:24;;;;;;;22.52;16.63;;;16.30;99.90;;;;;;5081649;28;20024;-81
2022/06/26 02:18:53;;;;;;;20.42;15.45;;;16.30;99.90;;;;;;5078466;28;20050;-81
2022/06/26 02:21:21;;;;;;;20.45;14.20;;;16.40;99.90;;;;;;5076619;28;20028;-83
2022/06/26 02:23:50;;;;;;;20.00;13.73;;;16.30;99.90;;;;;;5073733;28;20025;-81
2022/06/26 02:26:17;;;;;;;21.80;13.30;;;16.40;99.90;;;;;;5080323;28;20032;-80
2022/06/26 02:28:43;;;;;;;23.88;14.50;;;16.30;99.90;;;;;;5080481;28;20107;-80
2022/06/26 02:31:09;;;;;;;17.67;13.25;;;16.40;99.90;;;;;;5074468;28;20109;-82
2022/06/26 02:33:35;;;;;;;18.27;13.63;;;16.30;99.90;;;;;;5093010;28;20052;-81
2022/06/26 02:36:02;;;;;;;19.27;13.68;;;16.30;99.90;;;;;;5094217;28;20028;-82
2022/06/26 02:38:28;;;;;;;19.33;11.98;;;16.30;99.90;;;;;;5094188;28;20494;-81
2022/06/26 02:40:54;;;;;;;21.92;12.93;;;16.20;99.90;;;;;;5093235;28;20016;-82
2022/06/26 02:43:23;;;;;;;25.50;14.18;;;16.20;99.90;;;;;;5094502;28;20024;-81
2022/06/26 02:45:49;;;;;;;20.30;13.15;;;16.20;99.90;;;;;;5093922;28;20027;-81
2022/06/26 02:48:14;;;;;;;17.60;13.30;;;16.00;99.90;;;;;;5100229;28;20031;-80
2022/06/26 02:50:40;;;;;;;18.05;12.65;;;16.10;99.90;;;;;;5096442;28;20028;-82
2022/06/26 02:53:06;;;;;;;16.98;12.63;;;16.00;99.90;;;;;;5093842;28;20023;-81
2022/06/26 02:55:31;;;;;;;16.35;11.93;;;15.90;99.90;;;;;;5096334;28;20090;-81
2022/06/26 02:57:57;;;;;;;21.17;13.13;;;15.90;99.90;;;;;;5099303;28;20130;-82
2022/06/26 03:00:23;;;;;;;17.48;11.82;;;16.00;99.90;;;;;;5095131;28;20016;-81
2022/06/26 03:02:48;;;;;;;18.85;11.65;;;16.00;99.90;;;;;;5094699;28;20040;-82
2022/06/26 03:05:14;;;;;;;14.95;11.50;;;15.80;99.90;;;;;;5094108;28;20032;-81
2022/06/26 03:07:40;;;;;;;15.48;10.93;;;15.80;99.90;;;;;;5093076;28;20023;-82
2022/06/26 03:10:06;;;;;;;12.18;10.10;;;15.80;99.90;;;;;;5093660;28;20059;-81
2022/06/26 03:12:32;;;;;;;14.95;10.00;;;15.70;99.90;;;;;;5093719;28;20089;-80
2022/06/26 03:14:58;;;;;;;17.42;10.95;;;15.70;99.90;;;;;;5093801;28;20020;-81
2022/06/26 03:17:24;;;;;;;20.38;10.73;;;15.60;99.90;;;;;;5093615;28;20552;-81
2022/06/26 03:19:50;;;;;;;14.82;9.77;;;15.60;99.90;;;;;;5092680;28;20081;-82
2022/06/26 03:22:16;;;;;;;14.90;9.88;;;15.60;99.90;;;;;;5092431;28;20028;-82
2022/06/26 03:24:42;;;;;;;14.73;10.35;;;15.60;99.90;;;;;;5093344;28;20028;-82
2022/06/26 03:27:07;;;;;;;15.10;9.60;;;15.60;99.90;;;;;;5093236;28;20028;-82
2022/06/26 03:29:33;;;;;;;13.40;9.43;;;15.50;99.90;;;;;;5090417;28;20438;-82
2022/06/26 03:31:59;;;;;;;18.90;10.50;;;15.50;99.90;;;;;;5080109;28;20021;-82
2022/06/26 03:34:24;;;;;;;15.90;10.23;;;15.50;99.90;;;;;;5093018;28;20035;-82
2022/06/26 03:36:50;;;;;;;14.93;9.48;;;15.60;99.90;;;;;;5091931;28;20020;-82
2022/06/26 03:39:16;;;;;;;17.90;9.25;;;15.40;99.90;;;;;;5093462;28;20384;-82
2022/06/26 03:41:57;;;;;;;14.07;9.85;;;15.50;99.90;;;;;;5092784;28;20081;-82
2022/06/26 03:44:23;;;;;;;13.75;9.30;;;15.50;99.90;;;;;;5092573;28;20035;-82
2022/06/26 03:46:49;;;;;;;17.52;10.57;;;15.50;99.90;;;;;;5092449;28;20472;-81
2022/06/26 03:49:14;;;;;;;14.80;10.32;;;15.50;99.90;;;;;;5092853;28;20040;-81
2022/06/26 03:51:40;;;;;;;15.65;10.07;;;15.60;99.90;;;;;;5092750;28;20482;-81
2022/06/26 03:54:06;;;;;;;13.38;9.82;;;15.50;99.90;;;;;;5093251;28;20028;-81
2022/06/26 03:56:31;;;;;;;15.90;10.35;;;15.70;99.90;;;;;;5094822;28;20111;-81
2022/06/26 03:58:57;;;;;;;19.70;11.20;;;15.80;99.90;;;;;;5094013;28;20076;-81
2022/06/26 04:01:22;;;;;;;17.00;10.25;;;15.80;99.90;;;;;;5095261;28;20085;-80
2022/06/26 04:03:48;;;;;;;14.55;9.57;;;15.90;99.90;;;;;;5093629;28;20032;-81
2022/06/26 04:06:14;;;;;;;13.23;10.23;;;15.80;99.90;;;;;;5093958;28;20486;-80
2022/06/26 04:08:39;;;;;;;17.83;10.75;;;15.70;99.90;;;;;;5095110;28;20020;-81
2022/06/26 04:11:05;;;;;;;13.90;9.88;;;15.70;99.90;;;;;;5092852;28;20032;-83
2022/06/26 04:13:30;;;;;;;18.45;10.50;;;15.80;99.90;;;;;;5093571;28;20021;-83
2022/06/26 04:15:56;;;;;;;15.43;11.07;;;15.70;99.90;;;;;;5092995;28;20051;-83
2022/06/26 04:18:22;;;;;;;15.27;11.13;;;15.70;99.90;;;;;;5093385;28;20032;-81
2022/06/26 04:20:47;;;;;;;16.95;11.27;;;15.70;99.90;;;;;;5093439;28;20054;-80
2022/06/26 04:23:13;;;;;;;15.30;11.70;;;15.70;99.90;;;;;;5093357;28;20024;-80
2022/06/26 04:25:39;;;;;;;20.50;13.48;;;15.70;99.90;;;;;;5093426;28;20028;-81
2022/06/26 04:28:06;;;;;;;14.90;11.32;;;15.80;99.90;;;;;;5093995;28;20108;-82
2022/06/26 04:30:32;;;;;;;16.83;11.55;;;15.70;99.90;;;;;;5084103;28;20040;-81
2022/06/26 04:32:58;;;;;;;14.07;12.57;;;15.70;99.90;;;;;;5087733;28;20016;-81
2022/06/26 04:35:24;;;;;;;22.30;12.93;;;15.80;99.90;;;;;;5092584;28;20069;-80
2022/06/26 04:37:50;;;;;;;17.88;12.70;;;15.90;99.90;;;;;;5092117;28;20020;-80
2022/06/26 04:40:16;;;;;;;14.93;12.02;;;16.00;99.90;;;;;;5098292;28;20110;-82
2022/06/26 04:42:42;;;;;;;14.27;10.77;;;16.00;99.90;;;;;;5097490;28;20028;-81
2022/06/26 04:45:09;;;;;;;13.52;10.52;;;16.10;99.90;;;;;;5095337;28;20107;-82
2022/06/26 04:47:35;;;;;;;15.77;10.80;;;16.10;99.90;;;;;;5096353;28;20024;-81
2022/06/26 04:50:01;;;;;;;12.02;9.98;;;16.10;99.90;;;;;;5102479;28;20145;-82
2022/06/26 04:52:26;;;;;;;13.43;9.88;;;16.10;99.90;;;;;;5099103;28;20024;-82
2022/06/26 04:54:52;;;;;;;15.85;9.65;;;16.10;99.90;;;;;;5081442;28;20029;-80
2022/06/26 04:57:17;;;;;;;13.65;9.38;;;16.20;99.90;;;;;;5096020;28;20031;-82
2022/06/26 04:59:46;;;;;;;11.40;9.30;;;16.20;99.90;;;;;;5096476;28;20488;-81
2022/06/26 05:02:12;;;;;;;10.95;9.13;;;16.20;99.90;;;;;;5095150;28;20392;-82
2022/06/26 05:04:37;;;;;;;14.43;9.50;;;16.30;99.90;;;;;;5096357;28;20035;-83
2022/06/26 05:07:07;;;;;;;10.80;8.82;;;16.30;99.90;;;;;;5095344;28;20016;-81
2022/06/26 05:09:32;;;;;;;10.88;8.05;;;16.30;99.90;;;;;;5096388;28;20032;-82
2022/06/26 05:11:59;;;;;;;11.63;9.57;;;16.40;99.90;;;;;;5095157;28;20483;-80
2022/06/26 05:14:25;;;;;;;12.15;8.45;;;16.40;99.90;;;;;;5095096;28;20028;-82
2022/06/26 05:16:51;;;;;;;10.85;8.57;;;16.50;99.90;;;;;;5095860;28;20024;-81
2022/06/26 05:19:17;;;;;;;10.65;7.85;;;16.50;99.90;;;;;;5095398;28;20464;-80
2022/06/26 05:21:42;;;;;;;15.68;8.50;;;16.50;99.90;;;;;;5092670;28;20028;-80
2022/06/26 05:24:08;;;;;;;11.02;8.05;;;16.70;99.90;;;;;;5076014;28;20021;-81
2022/06/26 05:26:34;;;;;;;13.48;7.55;;;16.80;99.90;;;;;;5076862;28;20028;-81
2022/06/26 05:29:00;;;;;;;9.30;8.30;;;16.90;99.90;;;;;;5073087;28;20033;-80
2022/06/26 05:31:26;;;;;;;8.65;7.75;;;17.00;99.90;;;;;;5074025;28;20116;-79
2022/06/26 05:33:51;;;;;;;12.10;7.90;;;17.20;99.90;;;;;;5074253;28;20020;-79
2022/06/26 05:36:17;;;;;;;9.60;6.90;;;17.40;99.90;;;;;;5073349;28;20028;-81
2022/06/26 05:38:43;;;;;;;8.45;6.78;;;17.50;99.90;;;;;;5073688;28;20069;-80
2022/06/26 05:41:09;;;;;;;11.98;6.88;;;17.60;99.90;;;;;;5074815;28;20396;-81
2022/06/26 05:43:34;;;;;;;8.40;6.90;;;17.80;99.90;;;;;;5073341;28;20017;-81
2022/06/26 05:46:01;;;;;;;7.07;5.97;;;17.90;99.90;;;;;;5074854;28;20036;-81
2022/06/26 05:48:26;;;;;;;9.38;5.90;;;18.10;99.90;;;;;;5076230;28;20028;-79
2022/06/26 05:50:53;;;;;;;9.55;5.57;;;18.30;99.90;;;;;;5081446;28;20028;-80
2022/06/26 05:53:19;;;;;;;8.55;6.10;;;18.40;99.90;;;;;;5079616;28;20039;-81
2022/06/26 05:55:45;;;;;;;7.13;5.55;;;18.50;99.90;;;;;;5082209;28;20028;-81
2022/06/26 05:58:11;;;;;;;9.10;5.43;;;18.60;99.90;;;;;;5074989;28;20020;-79
2022/06/26 06:00:38;;;;;;;10.05;5.22;;;18.60;99.90;;;;;;5081609;28;20483;-80
2022/06/26 06:03:05;;;;;;;9.95;4.75;;;18.60;99.90;;;;;;5071838;28;20052;-81
2022/06/26 06:05:30;;;;;;;8.50;5.07;;;18.70;99.90;;;;;;5072179;28;20028;-82
2022/06/26 06:07:56;;;;;;;9.85;5.43;;;18.70;99.90;;;;;;5073428;28;20024;-81
2022/06/26 06:10:24;;;;;;;10.02;5.05;;;18.80;99.90;;;;;;5072403;28;20036;-82
2022/06/26 06:12:50;;;;;;;5.95;4.30;;;18.90;99.90;;;;;;5083920;28;20025;-82
2022/06/26 06:15:17;;;;;;;4.63;4.22;;;18.90;99.90;;;;;;5074030;28;20108;-81
2022/06/26 06:17:44;;;;;;;9.70;4.72;;;18.80;99.90;;;;;;5073625;28;20162;-81
2022/06/26 06:20:20;;;;;;;5.85;4.05;;;18.90;99.90;;;;;;5078423;28;20031;-82
2022/06/26 06:22:54;;;;;;;6.88;3.90;;;18.80;99.90;;;;;;5078940;28;20084;-82
2022/06/26 06:25:21;;;;;;;6.72;4.22;;;18.70;99.90;;;;;;5074638;28;20161;-80
2022/06/26 06:27:47;;;;;;;6.47;4.57;;;18.60;99.90;;;;;;5089617;28;20016;-81
2022/06/26 06:30:13;;;;;;;6.72;4.53;;;18.50;99.90;;;;;;5093421;28;20088;-81
2022/06/26 06:32:40;;;;;;;7.03;4.65;;;18.50;99.90;;;;;;5095667;28;19992;-80
2022/06/26 06:35:07;;;;;;;4.38;3.72;;;18.50;99.90;;;;;;5097274;28;20043;-80
2022/06/26 06:37:33;;;;;;;5.32;4.57;;;18.50;99.90;;;;;;5090194;28;20450;-80
2022/06/26 06:39:59;;;;;;;8.90;4.35;;;18.50;99.90;;;;;;5093055;28;20107;-81
2022/06/26 06:42:25;;;;;;;6.07;4.28;;;18.50;99.90;;;;;;5097265;28;20036;-81
2022/06/26 06:44:51;;;;;;;7.72;4.40;;;18.50;99.90;;;;;;5087980;28;20150;-81
2022/06/26 06:47:16;;;;;;;7.55;4.47;;;18.50;99.90;;;;;;5088904;28;20084;-81
2022/06/26 06:49:42;;;;;;;11.65;4.80;;;18.50;99.90;;;;;;5092097;28;20101;-81
2022/06/26 06:52:08;;;;;;;5.10;4.18;;;18.40;99.90;;;;;;5089009;28;20021;-82
2022/06/26 06:54:34;;;;;;;5.30;4.20;;;18.40;99.90;;;;;;5087686;28;20050;-82
2022/06/26 06:57:00;;;;;;;4.40;3.70;;;18.30;99.90;;;;;;5076160;28;20476;-82
2022/06/26 06:59:26;;;;;;;5.25;4.40;;;18.40;99.90;;;;;;5079417;28;20030;-81
2022/06/26 07:01:51;;;;;;;6.18;4.13;;;18.40;99.90;;;;;;5084381;28;20108;-81
2022/06/26 07:04:18;;;;;;;4.85;4.45;;;18.50;99.90;;;;;;5074336;28;20016;-80
2022/06/26 07:06:44;;;;;;;11.52;4.60;;;18.80;99.90;;;;;;5072244;28;20019;-81
2022/06/26 07:09:09;;;;;;;6.50;4.03;;;18.90;99.90;;;;;;5081782;28;20024;-82
2022/06/26 07:11:35;;;;;;;4.18;3.78;;;18.90;99.90;;;;;;5073249;28;20040;-82
2022/06/26 07:14:00;;;;;;;4.82;3.78;;;18.90;99.90;;;;;;5072865;28;20020;-79
2022/06/26 07:16:26;;;;;;;9.52;4.40;;;19.00;99.90;;;;;;5075378;28;20028;-81
2022/06/26 07:18:52;;;;;;;4.55;3.88;;;19.10;99.90;;;;;;5071578;28;20020;-82
2022/06/26 07:21:18;;;;;;;6.03;4.20;;;19.20;99.90;;;;;;5071970;28;20404;-79
2022/06/26 07:23:44;;;;;;;5.93;3.50;;;19.30;99.90;;;;;;5088438;28;20016;-81
2022/06/26 07:26:10;;;;;;;3.90;3.42;;;19.40;99.90;;;;;;5086614;28;20023;-81
2022/06/26 07:28:36;;;;;;;4.70;3.60;;;19.40;99.90;;;;;;5087609;28;20020;-81
2022/06/26 07:31:02;;;;;;;5.60;3.42;;;19.60;99.90;;;;;;5095563;28;20514;-81
2022/06/26 07:36:12;;;;;;;6.68;3.60;;;19.50;99.90;;;;;;5087760;28;20054;-82
2022/06/26 07:38:38;;;;;;;5.03;3.40;;;19.50;99.90;;;;;;5083470;28;20099;-80
2022/06/26 07:41:04;;;;;;;3.25;2.78;;;19.40;99.90;;;;;;5085268;28;20055;-80
2022/06/26 07:43:29;;;;;;;3.63;2.67;;;19.50;99.90;;;;;;5089086;28;20103;-81
2022/06/26 07:45:56;;;;;;;4.93;3.03;;;19.40;99.90;;;;;;5084870;28;20024;-82
2022/06/26 07:48:22;;;;;;;4.57;2.78;;;19.40;99.90;;;;;;5080833;28;20473;-81
2022/06/26 07:50:49;;;;;;;6.03;3.40;;;19.40;99.90;;;;;;5086248;28;20032;-81
2022/06/26 07:53:18;;;;;;;4.63;2.38;;;19.50;99.90;;;;;;5091763;28;20546;-80
2022/06/26 07:55:44;;;;;;;5.15;2.53;;;19.50;99.90;;;;;;5090459;28;20031;-82
2022/06/26 07:58:09;;;;;;;3.55;2.60;;;19.50;99.90;;;;;;5079662;28;20017;-83
2022/06/26 08:00:35;;;;;;;3.35;2.38;;;19.50;99.90;;;;;;5077267;28;20023;-80
2022/06/26 08:03:09;;;;;;;2.15;1.85;;;19.40;99.90;;;;;;5084241;28;20144;-79
2022/06/26 08:05:35;;;;;;;4.22;1.67;;;19.40;99.90;;;;;;5072600;28;20032;-80
2022/06/26 08:08:02;;;;;;;5.85;2.50;;;19.30;99.90;;;;;;5072165;28;20017;-80
2022/06/26 08:10:27;;;;;;;4.63;2.33;;;19.30;99.90;;;;;;5083478;28;20036;-84
2022/06/26 08:12:54;;;;;;;3.25;1.98;;;19.40;99.90;;;;;;5088493;28;20024;-79
2022/06/26 08:15:21;;;;;;;3.65;1.95;;;19.30;99.90;;;;;;5079601;28;20024;-79
2022/06/26 08:17:46;;;;;;;3.28;2.03;;;19.30;99.90;;;;;;5089469;28;20015;-78
2022/06/26 08:20:12;;;;;;;4.50;2.53;;;19.20;99.90;;;;;;5096101;28;20020;-80
2022/06/26 08:22:38;;;;;;;3.15;2.30;;;19.20;99.90;;;;;;5080034;28;20021;-82
2022/06/26 08:25:04;;;;;;;3.00;2.05;;;19.20;99.90;;;;;;5094573;28;20020;-80
2022/06/26 08:27:30;;;;;;;5.30;2.38;;;19.30;99.90;;;;;;5089930;28;20016;-78
2022/06/26 08:29:55;;;;;;;3.55;2.40;;;19.30;99.90;;;;;;5095595;28;20028;-80
2022/06/26 08:32:21;;;;;;;2.65;2.20;;;19.40;99.90;;;;;;5094965;28;20078;-81
2022/06/26 08:34:47;;;;;;;2.10;1.90;;;19.50;99.90;;;;;;5089247;28;20345;-82
2022/06/26 08:37:12;;;;;;;4.30;2.30;;;19.70;99.90;;;;;;5083904;28;20021;-79
2022/06/26 08:39:38;;;;;;;5.13;3.08;;;19.90;99.90;;;;;;5080425;28;20035;-81
2022/06/26 08:42:05;;;;;;;4.38;3.38;;;20.10;99.90;;;;;;5094827;28;20073;-79
2022/06/26 08:44:32;;;;;;;15.10;4.13;;;20.30;99.90;;;;;;5090996;28;20055;-79
2022/06/26 08:46:58;;;;;;;3.40;3.10;;;20.40;99.90;;;;;;5084485;28;20028;-84
2022/06/26 08:49:25;;;;;;;3.20;2.60;;;20.60;99.90;;;;;;5075967;28;20043;-74
2022/06/26 08:51:52;;;;;;;10.65;3.20;;;20.70;99.90;;;;;;5075832;28;20025;-78
2022/06/26 08:54:18;;;;;;;6.35;3.17;;;20.70;99.90;;;;;;5057179;28;20827;-79
2022/06/26 08:56:47;;;;;;;5.63;3.40;;;20.80;99.90;;;;;;5075216;28;20031;-77
2022/06/26 08:59:17;;;;;;;3.03;2.72;;;20.80;99.90;;;;;;5076125;28;20119;-77
2022/06/26 09:01:44;;;;;;;5.32;3.30;;;20.80;99.90;;;;;;5093538;28;20028;-78
2022/06/26 09:04:10;;;;;;;5.78;2.80;;;20.90;99.90;;;;;;5086647;28;20051;-80
2022/06/26 09:06:38;;;;;;;4.93;2.88;;;20.90;99.90;;;;;;5075599;28;20103;-77
2022/06/26 09:09:25;;;;;;;3.17;2.25;;;21.00;99.90;;;;;;5092643;28;20076;-78
2022/06/26 09:11:59;;;;;;;3.22;2.50;;;21.00;99.90;;;;;;5080879;28;20039;-77
2022/06/26 09:14:26;;;;;;;3.75;2.35;;;21.00;99.90;;;;;;5074369;28;20089;-78
2022/06/26 09:16:52;;;;;;;3.97;2.45;;;21.00;99.90;;;;;;5074029;28;20099;-78
2022/06/26 09:19:24;;;;;;;4.13;1.77;;;21.20;99.90;;;;;;5087322;28;20040;-78
2022/06/26 09:21:51;;;;;;;3.58;2.20;;;21.20;99.90;;;;;;5090896;28;20052;-78
2022/06/26 09:24:19;;;;;;;4.63;2.92;;;21.30;99.90;;;;;;5093409;28;20058;-77
2022/06/26 09:27:21;;;;;;;2.70;2.50;;;21.40;99.90;;;;;;5091213;28;20444;-76
2022/06/26 09:29:52;;;;;;;5.50;2.90;;;21.50;99.90;;;;;;5010511;28;20037;-79
2022/06/26 09:32:18;;;;;;;4.00;2.45;;;21.60;99.90;;;;;;5074897;28;20044;-77
2022/06/26 09:34:52;;;;;;;5.10;2.80;;;21.70;99.90;;;;;;5089986;28;20023;-76
2022/06/26 09:37:21;;;;;;;4.32;2.88;;;21.80;99.90;;;;;;5092001;28;20023;-78
2022/06/26 09:39:47;;;;;;;5.07;3.50;;;21.90;99.90;;;;;;5090254;28;20024;-79
2022/06/26 09:42:21;;;;;;;2.88;2.65;;;22.10;99.90;;;;;;5090819;28;20104;-79
2022/06/26 09:44:47;;;;;;;5.45;3.00;;;22.10;99.90;;;;;;5090602;28;20087;-79
2022/06/26 09:47:35;;;;;;;4.22;2.88;;;22.10;99.90;;;;;;5091551;28;20418;-78
2022/06/26 09:50:03;;;;;;;3.60;3.30;;;22.20;99.90;;;;;;5087890;28;20036;-78
2022/06/26 09:52:31;;;;;;;3.10;2.80;;;22.30;99.90;;;;;;5093646;28;20093;-80
2022/06/26 09:54:59;;;;;;;3.75;2.65;;;22.30;99.90;;;;;;5092799;28;20127;-77
2022/06/26 09:57:27;;;;;;;4.22;3.28;;;22.40;99.90;;;;;;5092972;28;20055;-78
2022/06/26 09:59:53;;;;;;;6.22;3.40;;;22.40;99.90;;;;;;5088783;28;20040;-77
2022/06/26 10:08:03;;;;;;;4.80;3.20;;;22.60;99.90;;;;;;5091422;28;20503;-79
2022/06/26 10:10:30;;;;;;;6.90;3.35;;;22.60;99.90;;;;;;5090880;28;20139;-78
2022/06/26 10:13:08;;;;;;;5.05;3.25;;;22.60;99.90;;;;;;5081612;28;20103;-77
2022/06/26 10:16:01;;;;;;;4.88;3.13;;;22.60;99.90;;;;;;5090591;28;20020;-77
2022/06/26 10:18:52;;;;;;;5.93;4.05;;;22.80;99.90;;;;;;5089931;28;20074;-78
2022/06/26 10:21:18;;;;;;;4.82;3.28;;;22.90;99.90;;;;;;5089905;28;20031;-78
2022/06/26 10:23:43;;;;;;;8.15;3.22;;;22.90;99.90;;;;;;5085432;28;20031;-78
2022/06/26 10:26:13;;;;;;;9.48;3.70;;;22.90;99.90;;;;;;5090108;28;20040;-78
2022/06/26 10:28:58;;;;;;;6.27;3.50;;;22.90;99.90;;;;;;5089536;28;20035;-77
2022/06/26 10:31:24;;;;;;;6.50;2.97;;;22.90;99.90;;;;;;5086082;28;20028;-77
2022/06/26 10:33:50;;;;;;;2.80;2.22;;;23.00;99.90;;;;;;5091348;28;20024;-77
2022/06/26 10:36:25;;;;;;;4.22;2.83;;;23.10;99.90;;;;;;5089747;28;20093;-77
2022/06/26 10:39:02;;;;;;;3.13;2.78;;;23.20;99.90;;;;;;5088451;28;20016;-78
2022/06/26 10:44:51;;;;;;;3.13;2.80;;;23.40;99.90;;;;;;5089245;28;20077;-79
2022/06/26 10:47:17;;;;;;;10.45;3.58;;;23.60;99.90;;;;;;5088823;28;20024;-78
2022/06/26 10:49:51;;;;;;;5.90;4.15;;;23.70;99.90;;;;;;5086392;28;20364;-77
2022/06/26 10:52:27;;;;;;;7.63;3.25;;;23.80;99.90;;;;;;5087927;28;20032;-77
2022/06/26 10:54:54;;;;;;;4.30;2.30;;;23.70;99.90;;;;;;5074590;28;20016;-78
2022/06/26 10:57:37;;;;;;;4.82;3.05;;;23.80;99.90;;;;;;5079670;28;20050;-78
2022/06/26 11:00:10;;;;;;;2.65;2.45;;;23.80;99.90;;;;;;5074732;28;20027;-79
2022/06/26 11:02:38;;;;;;;5.55;3.33;;;23.90;99.90;;;;;;5074141;28;20053;-78
2022/06/26 11:05:06;;;;;;;5.55;2.90;;;23.90;99.70;;;;;;5073502;28;20554;-78
2022/06/26 11:07:49;;;;;;;4.20;3.67;;;24.10;99.00;;;;;;5084919;28;20036;-77
2022/06/26 11:10:16;;;;;;;4.30;3.45;;;24.20;98.90;;;;;;5076327;28;20446;-78
2022/06/26 11:12:44;;;;;;;3.58;2.83;;;24.20;99.00;;;;;;5082468;28;20029;-78
2022/06/26 11:15:33;;;;;;;5.22;3.20;;;24.20;99.50;;;;;;5088626;28;20095;-79
2022/06/26 11:18:05;;;;;;;3.38;3.08;;;24.40;98.30;;;;;;5084251;28;20490;-79
2022/06/26 11:20:52;;;;;;;4.70;3.63;;;24.40;98.00;;;;;;5079416;28;20721;-79
2022/06/26 11:23:25;;;;;;;4.25;3.78;;;24.40;98.30;;;;;;5071605;28;20024;-79
2022/06/26 11:26:03;;;;;;;9.75;4.45;;;24.40;98.10;;;;;;5071555;28;20051;-77
2022/06/26 11:28:58;;;;;;;4.22;3.40;;;24.40;97.70;;;;;;5071619;28;20028;-78
2022/06/26 11:31:30;;;;;;;5.47;3.45;;;24.30;98.40;;;;;;5077318;28;20040;-78
2022/06/26 11:34:10;;;;;;;5.57;3.38;;;24.40;97.70;;;;;;5070957;28;20372;-80
2022/06/26 11:36:36;;;;;;;5.72;3.75;;;24.30;97.50;;;;;;5071995;28;20024;-78
2022/06/26 11:39:02;;;;;;;3.50;3.05;;;24.40;97.60;;;;;;5071998;28;20055;-79
2022/06/26 11:41:28;;;;;;;2.97;2.47;;;24.40;97.50;;;;;;5072100;28;20464;-78
2022/06/26 11:43:55;;;;;;;2.90;2.60;;;24.50;97.00;;;;;;5094978;28;20066;-78
2022/06/26 11:46:22;;;;;;;4.85;2.63;;;24.50;97.00;;;;;;5066937;28;20481;-78
2022/06/26 11:48:52;;;;;;;3.75;2.88;;;24.50;96.80;;;;;;5080786;28;20032;-78
2022/06/26 11:51:18;;;;;;;2.50;2.00;;;24.60;96.80;;;;;;5096528;28;20020;-79
2022/06/26 11:53:49;;;;;;;3.83;2.67;;;24.60;96.70;;;;;;5081418;28;20028;-78
2022/06/26 11:56:26;;;;;;;6.55;2.20;;;24.60;96.80;;;;;;5073416;28;20476;-79
2022/06/26 11:58:54;;;;;;;5.03;2.22;;;24.70;95.70;;;;;;5075318;28;20032;-79
2022/06/26 12:01:20;;;;;;;4.38;2.70;;;24.70;95.40;;;;;;5095111;28;20016;-79
2022/06/26 12:03:46;;;;;;;5.53;2.63;;;24.70;95.40;;;;;;5086470;28;20396;-79
2022/06/26 12:06:12;;;;;;;5.47;2.60;;;24.90;96.00;;;;;;5077166;28;20025;-79
2022/06/26 12:08:46;;;;;;;6.82;2.80;;;24.90;95.90;;;;;;5072456;28;20028;-79
2022/06/26 12:11:11;;;;;;;4.10;2.08;;;24.90;95.60;;;;;;5078702;28;20027;-79
2022/06/26 12:13:37;;;;;;;3.53;1.88;;;24.90;94.90;;;;;;5095100;28;20061;-78
2022/06/26 12:16:05;;;;;;;5.05;2.90;;;24.90;95.10;;;;;;5087077;28;20450;-79
2022/06/26 12:18:33;;;;;;;4.40;2.75;;;24.80;95.40;;;;;;5092590;28;20376;-77
2022/06/26 12:20:59;;;;;;;3.78;2.58;;;24.80;96.10;;;;;;5087903;28;20029;-78
2022/06/26 12:23:36;;;;;;;2.58;2.35;;;24.70;96.00;;;;;;5087573;28;20430;-78
2022/06/26 12:26:09;;;;;;;3.35;2.47;;;24.70;95.90;;;;;;5087863;28;20044;-79
2022/06/26 12:28:50;;;;;;;8.32;2.17;;;24.60;95.50;;;;;;5089142;28;20092;-79
2022/06/26 12:31:16;;;;;;;;;;;24.60;95.40;;;;;;5086742;28;20032;-78
2022/06/26 12:33:42;;;;;;;3.78;2.67;;;24.60;95.60;;;;;;5089796;28;19904;-78
2022/06/26 12:36:08;;;;;;;9.27;2.78;;;24.60;95.10;;;;;;5089664;28;20100;-77
2022/06/26 12:38:35;;;;;;;3.13;2.28;;;24.40;94.70;;;;;;5084665;28;20443;-78
2022/06/26 12:41:06;;;;;;;2.40;2.10;;;24.20;94.20;;;;;;5074419;28;20032;-78
2022/06/26 12:43:32;;;;;;;2.25;1.85;;;24.10;94.60;;;;;;5087895;28;20020;-79
2022/06/26 12:45:57;;;;;;;3.88;2.03;;;24.10;94.80;;;;;;5079672;28;20439;-78
2022/06/26 12:48:23;;;;;;;2.50;2.10;;;24.10;95.10;;;;;;5083721;28;21604;-78
2022/06/26 12:50:49;;;;;;;2.40;1.98;;;24.20;94.70;;;;;;5078334;28;20040;-78
2022/06/26 12:53:15;;;;;;;3.97;1.90;;;24.40;94.20;;;;;;5072239;28;20078;-79
2022/06/26 12:55:40;;;;;;;5.35;2.45;;;24.70;94.10;;;;;;5088584;28;20039;-79
2022/06/26 12:58:06;;;;;;;4.60;2.47;;;25.00;94.20;;;;;;5074269;28;20108;-79